sensor_id;sensor_type;location;lat;lon;timestamp;P1;durP1;ratioP1;P2;durP2;ratioP2
76574;SDS011;65439;50.948;6.988;2022-12-07T00:00:26;33.67;;;19.23;;
76574;SDS011;65439;50.948;6.988;2022-12-07T00:02:51;33.47;;;20.27;;
76574;SDS011;65439;50.948;6.988;2022-12-07T00:05:17;36.47;;;21.53;;
76574;SDS011;65439;50.948;6.988;2022-12-07T00:07:42;35.87;;;20.73;;
76574;SDS011;65439;50.948;6.988;2022-12-07T00:10:07;39.37;;;21.77;;
76574;SDS011;65439;50.948;6.988;2022-12-07T00:12:33;32.67;;;19.88;;
76574;SDS011;65439;50.948;6.988;2022-12-07T00:14:58;33.70;;;18.93;;
76574;SDS011;65439;50.948;6.988;2022-12-07T00:17:23;30.10;;;19.07;;
76574;SDS011;65439;50.948;6.988;2022-12-07T00:19:48;31.93;;;19.13;;
76574;SDS011;65439;50.948;6.988;2022-12-07T00:22:14;37.10;;;22.07;;
76574;SDS011;65439;50.948;6.988;2022-12-07T00:24:39;34.77;;;20.43;;
76574;SDS011;65439;50.948;6.988;2022-12-07T00:27:04;38.83;;;22.73;;
76574;SDS011;65439;50.948;6.988;2022-12-07T00:29:30;32.70;;;20.77;;
76574;SDS011;65439;50.948;6.988;2022-12-07T00:31:55;32.10;;;19.90;;
76574;SDS011;65439;50.948;6.988;2022-12-07T00:34:20;30.33;;;18.97;;
76574;SDS011;65439;50.948;6.988;2022-12-07T00:36:46;33.08;;;19.75;;
76574;SDS011;65439;50.948;6.988;2022-12-07T00:39:11;35.95;;;20.25;;
76574;SDS011;65439;50.948;6.988;2022-12-07T00:41:37;31.50;;;19.85;;
76574;SDS011;65439;50.948;6.988;2022-12-07T00:44:02;33.27;;;19.43;;
76574;SDS011;65439;50.948;6.988;2022-12-07T00:46:27;32.45;;;20.90;;
76574;SDS011;65439;50.948;6.988;2022-12-07T00:48:53;35.90;;;20.55;;
76574;SDS011;65439;50.948;6.988;2022-12-07T00:51:20;40.15;;;19.90;;
76574;SDS011;65439;50.948;6.988;2022-12-07T00:53:47;32.53;;;20.73;;
76574;SDS011;65439;50.948;6.988;2022-12-07T00:56:13;31.10;;;20.73;;
76574;SDS011;65439;50.948;6.988;2022-12-07T00:58:40;32.63;;;19.83;;
76574;SDS011;65439;50.948;6.988;2022-12-07T01:01:05;30.48;;;19.67;;
76574;SDS011;65439;50.948;6.988;2022-12-07T01:03:31;29.10;;;18.63;;
76574;SDS011;65439;50.948;6.988;2022-12-07T01:05:57;32.42;;;18.90;;
76574;SDS011;65439;50.948;6.988;2022-12-07T01:08:22;29.40;;;19.58;;
76574;SDS011;65439;50.948;6.988;2022-12-07T01:10:48;38.63;;;19.17;;
76574;SDS011;65439;50.948;6.988;2022-12-07T01:13:14;27.80;;;18.95;;
76574;SDS011;65439;50.948;6.988;2022-12-07T01:15:43;29.95;;;19.63;;
76574;SDS011;65439;50.948;6.988;2022-12-07T01:18:09;29.90;;;18.98;;
76574;SDS011;65439;50.948;6.988;2022-12-07T01:20:35;28.88;;;20.25;;
76574;SDS011;65439;50.948;6.988;2022-12-07T01:23:00;29.85;;;19.48;;
76574;SDS011;65439;50.948;6.988;2022-12-07T01:25:25;27.70;;;18.27;;
76574;SDS011;65439;50.948;6.988;2022-12-07T01:27:51;36.43;;;20.93;;
76574;SDS011;65439;50.948;6.988;2022-12-07T01:30:16;31.67;;;19.63;;
76574;SDS011;65439;50.948;6.988;2022-12-07T01:32:41;35.03;;;21.38;;
76574;SDS011;65439;50.948;6.988;2022-12-07T01:35:07;32.25;;;22.02;;
76574;SDS011;65439;50.948;6.988;2022-12-07T01:37:36;34.63;;;20.30;;
76574;SDS011;65439;50.948;6.988;2022-12-07T01:40:02;33.65;;;19.40;;
76574;SDS011;65439;50.948;6.988;2022-12-07T01:42:32;32.88;;;20.38;;
76574;SDS011;65439;50.948;6.988;2022-12-07T01:47:42;31.50;;;20.73;;
76574;SDS011;65439;50.948;6.988;2022-12-07T01:50:10;30.67;;;20.95;;
76574;SDS011;65439;50.948;6.988;2022-12-07T01:52:35;35.72;;;22.25;;
76574;SDS011;65439;50.948;6.988;2022-12-07T01:55:09;33.78;;;22.38;;
76574;SDS011;65439;50.948;6.988;2022-12-07T02:02:30;35.03;;;20.80;;
76574;SDS011;65439;50.948;6.988;2022-12-07T02:04:59;35.33;;;20.67;;
76574;SDS011;65439;50.948;6.988;2022-12-07T02:07:25;39.78;;;22.33;;
76574;SDS011;65439;50.948;6.988;2022-12-07T02:09:52;32.72;;;21.67;;
76574;SDS011;65439;50.948;6.988;2022-12-07T02:12:17;40.63;;;24.17;;
76574;SDS011;65439;50.948;6.988;2022-12-07T02:14:43;33.60;;;22.50;;
76574;SDS011;65439;50.948;6.988;2022-12-07T02:17:17;40.88;;;22.98;;
76574;SDS011;65439;50.948;6.988;2022-12-07T02:25:33;45.47;;;23.75;;
76574;SDS011;65439;50.948;6.988;2022-12-07T02:28:05;36.92;;;22.80;;
76574;SDS011;65439;50.948;6.988;2022-12-07T02:30:44;37.00;;;20.75;;
76574;SDS011;65439;50.948;6.988;2022-12-07T02:33:14;36.28;;;22.33;;
76574;SDS011;65439;50.948;6.988;2022-12-07T02:35:55;32.38;;;19.60;;
76574;SDS011;65439;50.948;6.988;2022-12-07T02:38:31;37.55;;;21.00;;
76574;SDS011;65439;50.948;6.988;2022-12-07T02:41:11;36.53;;;22.20;;
76574;SDS011;65439;50.948;6.988;2022-12-07T02:43:42;37.63;;;24.60;;
76574;SDS011;65439;50.948;6.988;2022-12-07T02:46:14;39.05;;;21.55;;
76574;SDS011;65439;50.948;6.988;2022-12-07T02:48:43;33.40;;;21.33;;
76574;SDS011;65439;50.948;6.988;2022-12-07T02:51:08;33.88;;;22.05;;
76574;SDS011;65439;50.948;6.988;2022-12-07T02:53:35;37.60;;;21.10;;
76574;SDS011;65439;50.948;6.988;2022-12-07T02:58:50;34.20;;;20.17;;
76574;SDS011;65439;50.948;6.988;2022-12-07T03:01:39;33.22;;;19.80;;
76574;SDS011;65439;50.948;6.988;2022-12-07T03:12:19;30.77;;;22.23;;
76574;SDS011;65439;50.948;6.988;2022-12-07T03:14:53;36.92;;;22.10;;
76574;SDS011;65439;50.948;6.988;2022-12-07T03:17:25;38.85;;;21.10;;
76574;SDS011;65439;50.948;6.988;2022-12-07T03:19:53;40.33;;;22.70;;
76574;SDS011;65439;50.948;6.988;2022-12-07T03:22:21;38.30;;;22.42;;
76574;SDS011;65439;50.948;6.988;2022-12-07T03:24:53;45.28;;;23.75;;
76574;SDS011;65439;50.948;6.988;2022-12-07T03:27:24;37.80;;;24.92;;
76574;SDS011;65439;50.948;6.988;2022-12-07T03:30:10;39.70;;;21.73;;
76574;SDS011;65439;50.948;6.988;2022-12-07T03:35:27;36.88;;;21.92;;
76574;SDS011;65439;50.948;6.988;2022-12-07T03:37:56;39.58;;;23.08;;
76574;SDS011;65439;50.948;6.988;2022-12-07T03:40:45;36.42;;;23.85;;
76574;SDS011;65439;50.948;6.988;2022-12-07T03:43:10;41.03;;;22.98;;
76574;SDS011;65439;50.948;6.988;2022-12-07T03:50:52;41.67;;;23.63;;
76574;SDS011;65439;50.948;6.988;2022-12-07T03:53:37;38.90;;;23.65;;
76574;SDS011;65439;50.948;6.988;2022-12-07T03:56:05;39.97;;;26.10;;
76574;SDS011;65439;50.948;6.988;2022-12-07T03:58:32;40.28;;;21.85;;
76574;SDS011;65439;50.948;6.988;2022-12-07T04:00:58;38.97;;;23.33;;
76574;SDS011;65439;50.948;6.988;2022-12-07T04:03:23;38.75;;;23.63;;
76574;SDS011;65439;50.948;6.988;2022-12-07T04:05:49;39.23;;;23.27;;
76574;SDS011;65439;50.948;6.988;2022-12-07T04:08:14;43.65;;;23.95;;
76574;SDS011;65439;50.948;6.988;2022-12-07T04:10:39;39.60;;;23.03;;
76574;SDS011;65439;50.948;6.988;2022-12-07T04:13:05;39.97;;;24.93;;
76574;SDS011;65439;50.948;6.988;2022-12-07T04:15:30;35.77;;;23.20;;
76574;SDS011;65439;50.948;6.988;2022-12-07T04:17:55;44.35;;;25.08;;
76574;SDS011;65439;50.948;6.988;2022-12-07T04:20:21;38.97;;;22.53;;
76574;SDS011;65439;50.948;6.988;2022-12-07T04:22:46;42.20;;;24.17;;
76574;SDS011;65439;50.948;6.988;2022-12-07T04:25:12;43.92;;;23.70;;
76574;SDS011;65439;50.948;6.988;2022-12-07T04:27:37;38.65;;;23.17;;
76574;SDS011;65439;50.948;6.988;2022-12-07T04:30:03;42.58;;;22.15;;
76574;SDS011;65439;50.948;6.988;2022-12-07T04:32:29;39.75;;;24.10;;
76574;SDS011;65439;50.948;6.988;2022-12-07T04:34:54;37.50;;;20.80;;
76574;SDS011;65439;50.948;6.988;2022-12-07T04:37:19;38.17;;;22.07;;
76574;SDS011;65439;50.948;6.988;2022-12-07T04:39:45;44.77;;;22.70;;
76574;SDS011;65439;50.948;6.988;2022-12-07T04:42:10;33.10;;;19.57;;
76574;SDS011;65439;50.948;6.988;2022-12-07T04:44:36;36.92;;;21.33;;
76574;SDS011;65439;50.948;6.988;2022-12-07T04:47:01;35.95;;;21.17;;
76574;SDS011;65439;50.948;6.988;2022-12-07T04:49:27;40.45;;;22.55;;
76574;SDS011;65439;50.948;6.988;2022-12-07T04:51:52;38.97;;;20.60;;
76574;SDS011;65439;50.948;6.988;2022-12-07T04:54:18;35.67;;;21.23;;
76574;SDS011;65439;50.948;6.988;2022-12-07T04:56:43;45.55;;;22.58;;
76574;SDS011;65439;50.948;6.988;2022-12-07T04:59:09;35.30;;;21.03;;
76574;SDS011;65439;50.948;6.988;2022-12-07T05:01:36;34.08;;;19.80;;
76574;SDS011;65439;50.948;6.988;2022-12-07T05:04:01;35.63;;;19.27;;
76574;SDS011;65439;50.948;6.988;2022-12-07T05:06:26;40.17;;;20.33;;
76574;SDS011;65439;50.948;6.988;2022-12-07T05:08:52;38.17;;;21.37;;
76574;SDS011;65439;50.948;6.988;2022-12-07T05:11:17;35.70;;;21.08;;
76574;SDS011;65439;50.948;6.988;2022-12-07T05:14:02;37.35;;;19.90;;
76574;SDS011;65439;50.948;6.988;2022-12-07T05:16:28;32.70;;;19.15;;
76574;SDS011;65439;50.948;6.988;2022-12-07T05:18:53;34.20;;;20.48;;
76574;SDS011;65439;50.948;6.988;2022-12-07T05:21:19;35.47;;;20.98;;
76574;SDS011;65439;50.948;6.988;2022-12-07T05:23:44;33.55;;;22.02;;
76574;SDS011;65439;50.948;6.988;2022-12-07T05:26:10;38.15;;;20.98;;
76574;SDS011;65439;50.948;6.988;2022-12-07T05:28:35;40.57;;;22.33;;
76574;SDS011;65439;50.948;6.988;2022-12-07T05:31:00;34.90;;;21.20;;
76574;SDS011;65439;50.948;6.988;2022-12-07T05:33:26;36.10;;;20.52;;
76574;SDS011;65439;50.948;6.988;2022-12-07T05:35:51;34.03;;;20.77;;
76574;SDS011;65439;50.948;6.988;2022-12-07T05:38:16;39.47;;;23.47;;
76574;SDS011;65439;50.948;6.988;2022-12-07T05:40:42;33.23;;;21.37;;
76574;SDS011;65439;50.948;6.988;2022-12-07T05:43:07;36.63;;;22.50;;
76574;SDS011;65439;50.948;6.988;2022-12-07T05:45:32;43.28;;;23.35;;
76574;SDS011;65439;50.948;6.988;2022-12-07T05:47:58;39.33;;;22.40;;
76574;SDS011;65439;50.948;6.988;2022-12-07T05:50:23;32.67;;;19.70;;
76574;SDS011;65439;50.948;6.988;2022-12-07T05:52:48;34.58;;;21.67;;
76574;SDS011;65439;50.948;6.988;2022-12-07T05:55:14;26.90;;;18.23;;
76574;SDS011;65439;50.948;6.988;2022-12-07T05:57:39;25.17;;;16.98;;
76574;SDS011;65439;50.948;6.988;2022-12-07T06:00:04;25.80;;;16.50;;
76574;SDS011;65439;50.948;6.988;2022-12-07T06:02:30;30.15;;;17.63;;
76574;SDS011;65439;50.948;6.988;2022-12-07T06:04:55;30.30;;;17.43;;
76574;SDS011;65439;50.948;6.988;2022-12-07T06:07:21;23.33;;;16.30;;
76574;SDS011;65439;50.948;6.988;2022-12-07T06:09:46;29.43;;;18.70;;
76574;SDS011;65439;50.948;6.988;2022-12-07T06:12:12;29.60;;;17.70;;
76574;SDS011;65439;50.948;6.988;2022-12-07T06:14:56;29.95;;;19.30;;
76574;SDS011;65439;50.948;6.988;2022-12-07T06:17:21;38.22;;;19.20;;
76574;SDS011;65439;50.948;6.988;2022-12-07T06:19:47;40.03;;;20.27;;
76574;SDS011;65439;50.948;6.988;2022-12-07T06:22:12;34.17;;;19.50;;
76574;SDS011;65439;50.948;6.988;2022-12-07T06:24:38;37.15;;;20.95;;
76574;SDS011;65439;50.948;6.988;2022-12-07T06:27:04;36.40;;;20.38;;
76574;SDS011;65439;50.948;6.988;2022-12-07T06:29:30;30.92;;;19.83;;
76574;SDS011;65439;50.948;6.988;2022-12-07T06:31:55;43.50;;;23.95;;
76574;SDS011;65439;50.948;6.988;2022-12-07T06:34:21;39.55;;;22.75;;
76574;SDS011;65439;50.948;6.988;2022-12-07T06:36:48;37.65;;;21.85;;
76574;SDS011;65439;50.948;6.988;2022-12-07T06:39:16;37.45;;;21.48;;
76574;SDS011;65439;50.948;6.988;2022-12-07T06:41:45;36.60;;;21.45;;
76574;SDS011;65439;50.948;6.988;2022-12-07T06:44:10;36.13;;;21.07;;
76574;SDS011;65439;50.948;6.988;2022-12-07T06:46:36;39.50;;;21.73;;
76574;SDS011;65439;50.948;6.988;2022-12-07T06:49:02;35.40;;;21.73;;
76574;SDS011;65439;50.948;6.988;2022-12-07T06:51:28;40.55;;;22.63;;
76574;SDS011;65439;50.948;6.988;2022-12-07T06:53:53;36.57;;;19.93;;
76574;SDS011;65439;50.948;6.988;2022-12-07T06:56:18;38.37;;;21.30;;
76574;SDS011;65439;50.948;6.988;2022-12-07T06:58:44;41.08;;;22.08;;
76574;SDS011;65439;50.948;6.988;2022-12-07T07:01:10;38.80;;;21.50;;
76574;SDS011;65439;50.948;6.988;2022-12-07T07:03:39;41.83;;;22.63;;
76574;SDS011;65439;50.948;6.988;2022-12-07T07:06:04;42.97;;;25.23;;
76574;SDS011;65439;50.948;6.988;2022-12-07T07:08:30;40.97;;;24.33;;
76574;SDS011;65439;50.948;6.988;2022-12-07T07:10:56;40.03;;;21.42;;
76574;SDS011;65439;50.948;6.988;2022-12-07T07:13:21;48.10;;;22.47;;
76574;SDS011;65439;50.948;6.988;2022-12-07T07:15:46;39.67;;;20.97;;
76574;SDS011;65439;50.948;6.988;2022-12-07T07:18:12;41.10;;;23.87;;
76574;SDS011;65439;50.948;6.988;2022-12-07T07:20:37;39.17;;;21.70;;
76574;SDS011;65439;50.948;6.988;2022-12-07T07:23:03;42.85;;;22.83;;
76574;SDS011;65439;50.948;6.988;2022-12-07T07:25:28;38.10;;;22.40;;
76574;SDS011;65439;50.948;6.988;2022-12-07T07:27:53;42.13;;;23.33;;
76574;SDS011;65439;50.948;6.988;2022-12-07T07:30:18;37.03;;;21.40;;
76574;SDS011;65439;50.948;6.988;2022-12-07T07:32:44;38.10;;;22.63;;
76574;SDS011;65439;50.948;6.988;2022-12-07T07:35:09;36.10;;;21.83;;
76574;SDS011;65439;50.948;6.988;2022-12-07T07:37:34;35.22;;;22.25;;
76574;SDS011;65439;50.948;6.988;2022-12-07T07:40:00;41.23;;;21.83;;
76574;SDS011;65439;50.948;6.988;2022-12-07T07:42:25;37.13;;;22.80;;
76574;SDS011;65439;50.948;6.988;2022-12-07T07:44:50;38.70;;;21.97;;
76574;SDS011;65439;50.948;6.988;2022-12-07T07:47:16;41.40;;;24.65;;
76574;SDS011;65439;50.948;6.988;2022-12-07T07:49:41;40.57;;;25.07;;
76574;SDS011;65439;50.948;6.988;2022-12-07T07:52:06;35.47;;;22.77;;
76574;SDS011;65439;50.948;6.988;2022-12-07T07:54:32;38.80;;;20.80;;
76574;SDS011;65439;50.948;6.988;2022-12-07T07:56:57;35.17;;;21.23;;
76574;SDS011;65439;50.948;6.988;2022-12-07T07:59:23;40.83;;;22.10;;
76574;SDS011;65439;50.948;6.988;2022-12-07T08:01:49;37.70;;;21.83;;
76574;SDS011;65439;50.948;6.988;2022-12-07T08:04:14;41.23;;;23.03;;
76574;SDS011;65439;50.948;6.988;2022-12-07T08:06:40;39.22;;;23.23;;
76574;SDS011;65439;50.948;6.988;2022-12-07T08:09:07;33.13;;;20.83;;
76574;SDS011;65439;50.948;6.988;2022-12-07T08:11:33;34.63;;;21.75;;
76574;SDS011;65439;50.948;6.988;2022-12-07T08:13:58;35.83;;;20.77;;
76574;SDS011;65439;50.948;6.988;2022-12-07T08:16:23;35.60;;;19.87;;
76574;SDS011;65439;50.948;6.988;2022-12-07T08:18:49;36.00;;;22.57;;
76574;SDS011;65439;50.948;6.988;2022-12-07T08:21:14;37.90;;;23.10;;
76574;SDS011;65439;50.948;6.988;2022-12-07T08:23:40;34.40;;;21.45;;
76574;SDS011;65439;50.948;6.988;2022-12-07T08:26:10;39.35;;;21.08;;
76574;SDS011;65439;50.948;6.988;2022-12-07T08:28:36;38.10;;;21.40;;
76574;SDS011;65439;50.948;6.988;2022-12-07T08:31:03;32.25;;;21.13;;
76574;SDS011;65439;50.948;6.988;2022-12-07T08:33:30;28.27;;;18.88;;
76574;SDS011;65439;50.948;6.988;2022-12-07T08:36:00;26.75;;;18.85;;
76574;SDS011;65439;50.948;6.988;2022-12-07T08:38:29;34.75;;;20.17;;
76574;SDS011;65439;50.948;6.988;2022-12-07T08:40:58;29.27;;;18.45;;
76574;SDS011;65439;50.948;6.988;2022-12-07T08:43:24;30.83;;;19.67;;
76574;SDS011;65439;50.948;6.988;2022-12-07T08:46:03;29.73;;;18.20;;
76574;SDS011;65439;50.948;6.988;2022-12-07T08:48:45;28.20;;;18.80;;
76574;SDS011;65439;50.948;6.988;2022-12-07T08:51:13;29.20;;;19.75;;
76574;SDS011;65439;50.948;6.988;2022-12-07T08:53:39;27.80;;;17.75;;
76574;SDS011;65439;50.948;6.988;2022-12-07T08:56:05;29.63;;;18.13;;
76574;SDS011;65439;50.948;6.988;2022-12-07T08:58:31;31.05;;;18.35;;
76574;SDS011;65439;50.948;6.988;2022-12-07T09:00:57;25.08;;;16.38;;
76574;SDS011;65439;50.948;6.988;2022-12-07T09:03:23;30.55;;;18.73;;
76574;SDS011;65439;50.948;6.988;2022-12-07T09:05:48;26.52;;;17.13;;
76574;SDS011;65439;50.948;6.988;2022-12-07T09:08:13;25.00;;;17.35;;
76574;SDS011;65439;50.948;6.988;2022-12-07T09:10:39;26.23;;;16.20;;
76574;SDS011;65439;50.948;6.988;2022-12-07T09:13:04;26.23;;;16.60;;
76574;SDS011;65439;50.948;6.988;2022-12-07T09:15:30;28.00;;;17.27;;
76574;SDS011;65439;50.948;6.988;2022-12-07T09:17:56;26.10;;;14.50;;
76574;SDS011;65439;50.948;6.988;2022-12-07T09:20:21;23.77;;;15.80;;
76574;SDS011;65439;50.948;6.988;2022-12-07T09:22:47;30.15;;;18.50;;
76574;SDS011;65439;50.948;6.988;2022-12-07T09:25:12;28.53;;;16.60;;
76574;SDS011;65439;50.948;6.988;2022-12-07T09:27:37;27.47;;;16.50;;
76574;SDS011;65439;50.948;6.988;2022-12-07T09:30:03;23.13;;;16.50;;
76574;SDS011;65439;50.948;6.988;2022-12-07T09:34:55;23.43;;;15.03;;
76574;SDS011;65439;50.948;6.988;2022-12-07T09:37:20;24.65;;;15.40;;
76574;SDS011;65439;50.948;6.988;2022-12-07T09:39:46;29.10;;;14.13;;
76574;SDS011;65439;50.948;6.988;2022-12-07T09:42:13;27.80;;;16.10;;
76574;SDS011;65439;50.948;6.988;2022-12-07T09:44:49;25.48;;;14.55;;
76574;SDS011;65439;50.948;6.988;2022-12-07T09:47:15;31.80;;;14.53;;
76574;SDS011;65439;50.948;6.988;2022-12-07T09:49:40;23.73;;;15.23;;
76574;SDS011;65439;50.948;6.988;2022-12-07T09:54:35;21.80;;;14.32;;
76574;SDS011;65439;50.948;6.988;2022-12-07T09:57:10;22.05;;;12.82;;
76574;SDS011;65439;50.948;6.988;2022-12-07T09:59:37;25.63;;;14.20;;
76574;SDS011;65439;50.948;6.988;2022-12-07T10:04:47;18.83;;;12.68;;
76574;SDS011;65439;50.948;6.988;2022-12-07T10:07:12;32.53;;;13.37;;
76574;SDS011;65439;50.948;6.988;2022-12-07T10:09:37;21.53;;;12.57;;
76574;SDS011;65439;50.948;6.988;2022-12-07T10:12:06;23.67;;;12.47;;
76574;SDS011;65439;50.948;6.988;2022-12-07T10:20:08;16.92;;;11.90;;
76574;SDS011;65439;50.948;6.988;2022-12-07T10:22:36;15.68;;;10.20;;
76574;SDS011;65439;50.948;6.988;2022-12-07T10:25:08;20.20;;;11.32;;
76574;SDS011;65439;50.948;6.988;2022-12-07T10:27:34;17.60;;;10.10;;
76574;SDS011;65439;50.948;6.988;2022-12-07T10:29:59;15.13;;;10.05;;
76574;SDS011;65439;50.948;6.988;2022-12-07T10:32:30;22.83;;;11.67;;
76574;SDS011;65439;50.948;6.988;2022-12-07T10:35:21;15.95;;;9.70;;
76574;SDS011;65439;50.948;6.988;2022-12-07T10:37:51;23.08;;;10.73;;
76574;SDS011;65439;50.948;6.988;2022-12-07T10:48:29;19.92;;;9.85;;
76574;SDS011;65439;50.948;6.988;2022-12-07T10:51:12;16.77;;;10.30;;
76574;SDS011;65439;50.948;6.988;2022-12-07T10:53:48;19.08;;;10.38;;
76574;SDS011;65439;50.948;6.988;2022-12-07T11:07:11;19.30;;;10.52;;
76574;SDS011;65439;50.948;6.988;2022-12-07T11:15:26;17.60;;;10.32;;
76574;SDS011;65439;50.948;6.988;2022-12-07T11:20:44;13.50;;;9.38;;
76574;SDS011;65439;50.948;6.988;2022-12-07T11:23:17;13.10;;;9.25;;
76574;SDS011;65439;50.948;6.988;2022-12-07T11:25:52;18.85;;;9.07;;
76574;SDS011;65439;50.948;6.988;2022-12-07T11:28:45;14.05;;;7.82;;
76574;SDS011;65439;50.948;6.988;2022-12-07T11:36:51;15.57;;;7.88;;
76574;SDS011;65439;50.948;6.988;2022-12-07T11:41:47;18.60;;;10.10;;
76574;SDS011;65439;50.948;6.988;2022-12-07T11:44:24;14.43;;;7.47;;
76574;SDS011;65439;50.948;6.988;2022-12-07T11:46:54;18.33;;;9.02;;
76574;SDS011;65439;50.948;6.988;2022-12-07T11:52:15;15.98;;;8.50;;
76574;SDS011;65439;50.948;6.988;2022-12-07T11:54:44;15.27;;;8.02;;
76574;SDS011;65439;50.948;6.988;2022-12-07T11:57:12;17.05;;;8.73;;
76574;SDS011;65439;50.948;6.988;2022-12-07T11:59:45;19.60;;;8.23;;
76574;SDS011;65439;50.948;6.988;2022-12-07T12:02:16;16.65;;;8.77;;
76574;SDS011;65439;50.948;6.988;2022-12-07T12:04:49;17.27;;;8.38;;
76574;SDS011;65439;50.948;6.988;2022-12-07T12:07:23;13.68;;;7.85;;
76574;SDS011;65439;50.948;6.988;2022-12-07T12:09:51;14.80;;;8.82;;
76574;SDS011;65439;50.948;6.988;2022-12-07T12:12:30;18.23;;;8.98;;
76574;SDS011;65439;50.948;6.988;2022-12-07T12:17:39;13.63;;;8.50;;
76574;SDS011;65439;50.948;6.988;2022-12-07T12:22:56;10.90;;;7.82;;
76574;SDS011;65439;50.948;6.988;2022-12-07T12:27:52;19.50;;;10.60;;
76574;SDS011;65439;50.948;6.988;2022-12-07T12:30:24;17.67;;;9.52;;
76574;SDS011;65439;50.948;6.988;2022-12-07T12:32:54;14.30;;;8.75;;
76574;SDS011;65439;50.948;6.988;2022-12-07T12:35:35;19.83;;;9.63;;
76574;SDS011;65439;50.948;6.988;2022-12-07T12:40:50;18.13;;;9.43;;
76574;SDS011;65439;50.948;6.988;2022-12-07T12:51:41;16.23;;;9.20;;
76574;SDS011;65439;50.948;6.988;2022-12-07T12:54:12;17.80;;;10.18;;
76574;SDS011;65439;50.948;6.988;2022-12-07T12:56:43;18.13;;;10.40;;
76574;SDS011;65439;50.948;6.988;2022-12-07T13:01:46;16.93;;;9.57;;
76574;SDS011;65439;50.948;6.988;2022-12-07T13:04:30;19.25;;;10.40;;
76574;SDS011;65439;50.948;6.988;2022-12-07T13:06:57;13.35;;;9.65;;
76574;SDS011;65439;50.948;6.988;2022-12-07T13:09:24;22.33;;;11.50;;
76574;SDS011;65439;50.948;6.988;2022-12-07T13:12:20;16.77;;;9.88;;
76574;SDS011;65439;50.948;6.988;2022-12-07T13:14:52;13.75;;;9.32;;
76574;SDS011;65439;50.948;6.988;2022-12-07T13:19:55;15.18;;;9.15;;
76574;SDS011;65439;50.948;6.988;2022-12-07T13:24:58;17.63;;;9.90;;
76574;SDS011;65439;50.948;6.988;2022-12-07T13:27:28;16.42;;;9.00;;
76574;SDS011;65439;50.948;6.988;2022-12-07T13:29:54;15.00;;;10.07;;
76574;SDS011;65439;50.948;6.988;2022-12-07T13:32:28;14.82;;;8.70;;
76574;SDS011;65439;50.948;6.988;2022-12-07T13:34:54;17.08;;;9.02;;
76574;SDS011;65439;50.948;6.988;2022-12-07T13:37:30;18.38;;;10.02;;
76574;SDS011;65439;50.948;6.988;2022-12-07T13:39:58;16.92;;;8.93;;
76574;SDS011;65439;50.948;6.988;2022-12-07T13:42:28;19.13;;;9.25;;
76574;SDS011;65439;50.948;6.988;2022-12-07T13:44:54;16.33;;;8.52;;
76574;SDS011;65439;50.948;6.988;2022-12-07T13:47:23;21.40;;;9.77;;
76574;SDS011;65439;50.948;6.988;2022-12-07T13:49:56;14.75;;;8.95;;
76574;SDS011;65439;50.948;6.988;2022-12-07T13:52:31;15.65;;;9.88;;
76574;SDS011;65439;50.948;6.988;2022-12-07T13:54:57;12.80;;;8.57;;
76574;SDS011;65439;50.948;6.988;2022-12-07T13:57:24;13.50;;;8.45;;
76574;SDS011;65439;50.948;6.988;2022-12-07T13:59:50;15.45;;;9.23;;
76574;SDS011;65439;50.948;6.988;2022-12-07T14:02:34;14.13;;;7.40;;
76574;SDS011;65439;50.948;6.988;2022-12-07T14:05:10;18.42;;;10.02;;
76574;SDS011;65439;50.948;6.988;2022-12-07T14:08:40;15.10;;;9.20;;
76574;SDS011;65439;50.948;6.988;2022-12-07T14:10:35;17.75;;;9.00;;
76574;SDS011;65439;50.948;6.988;2022-12-07T14:13:03;16.38;;;9.07;;
76574;SDS011;65439;50.948;6.988;2022-12-07T14:15:51;16.58;;;8.90;;
76574;SDS011;65439;50.948;6.988;2022-12-07T14:23:36;15.25;;;9.27;;
76574;SDS011;65439;50.948;6.988;2022-12-07T14:26:11;13.95;;;9.02;;
76574;SDS011;65439;50.948;6.988;2022-12-07T14:28:41;14.05;;;7.57;;
76574;SDS011;65439;50.948;6.988;2022-12-07T14:31:11;21.10;;;9.57;;
76574;SDS011;65439;50.948;6.988;2022-12-07T14:33:40;15.57;;;7.43;;
76574;SDS011;65439;50.948;6.988;2022-12-07T14:36:05;21.50;;;8.73;;
76574;SDS011;65439;50.948;6.988;2022-12-07T14:38:32;15.95;;;9.02;;
76574;SDS011;65439;50.948;6.988;2022-12-07T14:40:58;23.67;;;9.20;;
76574;SDS011;65439;50.948;6.988;2022-12-07T14:43:43;16.83;;;9.10;;
76574;SDS011;65439;50.948;6.988;2022-12-07T14:46:08;17.93;;;9.60;;
76574;SDS011;65439;50.948;6.988;2022-12-07T14:48:34;17.35;;;9.05;;
76574;SDS011;65439;50.948;6.988;2022-12-07T14:50:59;16.67;;;9.77;;
76574;SDS011;65439;50.948;6.988;2022-12-07T14:53:27;18.83;;;9.17;;
76574;SDS011;65439;50.948;6.988;2022-12-07T14:55:56;15.48;;;8.95;;
76574;SDS011;65439;50.948;6.988;2022-12-07T14:58:21;18.40;;;10.05;;
76574;SDS011;65439;50.948;6.988;2022-12-07T15:00:47;14.27;;;8.90;;
76574;SDS011;65439;50.948;6.988;2022-12-07T15:03:12;15.13;;;8.80;;
76574;SDS011;65439;50.948;6.988;2022-12-07T15:05:38;18.13;;;10.75;;
76574;SDS011;65439;50.948;6.988;2022-12-07T15:08:04;12.98;;;9.27;;
76574;SDS011;65439;50.948;6.988;2022-12-07T15:10:31;14.20;;;10.05;;
76574;SDS011;65439;50.948;6.988;2022-12-07T15:12:58;17.83;;;10.32;;
76574;SDS011;65439;50.948;6.988;2022-12-07T15:15:44;16.48;;;9.85;;
76574;SDS011;65439;50.948;6.988;2022-12-07T15:18:09;18.80;;;9.77;;
76574;SDS011;65439;50.948;6.988;2022-12-07T15:20:34;13.10;;;9.97;;
76574;SDS011;65439;50.948;6.988;2022-12-07T15:23:00;25.13;;;10.10;;
76574;SDS011;65439;50.948;6.988;2022-12-07T15:25:25;16.53;;;10.30;;
76574;SDS011;65439;50.948;6.988;2022-12-07T15:27:50;14.13;;;8.93;;
76574;SDS011;65439;50.948;6.988;2022-12-07T15:30:16;11.68;;;7.05;;
76574;SDS011;65439;50.948;6.988;2022-12-07T15:32:41;13.37;;;7.07;;
76574;SDS011;65439;50.948;6.988;2022-12-07T15:35:06;9.80;;;5.73;;
76574;SDS011;65439;50.948;6.988;2022-12-07T15:37:32;8.80;;;5.75;;
76574;SDS011;65439;50.948;6.988;2022-12-07T15:39:57;7.65;;;5.40;;
76574;SDS011;65439;50.948;6.988;2022-12-07T15:42:23;8.63;;;6.18;;
76574;SDS011;65439;50.948;6.988;2022-12-07T15:44:48;10.60;;;5.10;;
76574;SDS011;65439;50.948;6.988;2022-12-07T15:47:28;9.02;;;5.18;;
76574;SDS011;65439;50.948;6.988;2022-12-07T15:49:54;8.13;;;5.18;;
76574;SDS011;65439;50.948;6.988;2022-12-07T15:52:19;7.55;;;5.10;;
76574;SDS011;65439;50.948;6.988;2022-12-07T15:54:45;9.32;;;5.15;;
76574;SDS011;65439;50.948;6.988;2022-12-07T15:57:12;5.97;;;4.93;;
76574;SDS011;65439;50.948;6.988;2022-12-07T15:59:37;9.80;;;4.50;;
76574;SDS011;65439;50.948;6.988;2022-12-07T16:02:02;8.97;;;6.13;;
76574;SDS011;65439;50.948;6.988;2022-12-07T16:04:28;9.93;;;6.03;;
76574;SDS011;65439;50.948;6.988;2022-12-07T16:06:57;15.45;;;8.18;;
76574;SDS011;65439;50.948;6.988;2022-12-07T16:09:22;17.00;;;8.77;;
76574;SDS011;65439;50.948;6.988;2022-12-07T16:11:47;15.03;;;8.17;;
76574;SDS011;65439;50.948;6.988;2022-12-07T16:16:40;15.10;;;7.67;;
76574;SDS011;65439;50.948;6.988;2022-12-07T16:19:06;17.40;;;8.68;;
76574;SDS011;65439;50.948;6.988;2022-12-07T16:21:33;16.20;;;9.38;;
76574;SDS011;65439;50.948;6.988;2022-12-07T16:23:59;14.20;;;8.75;;
76574;SDS011;65439;50.948;6.988;2022-12-07T16:26:24;18.92;;;9.40;;
76574;SDS011;65439;50.948;6.988;2022-12-07T16:28:50;12.20;;;8.97;;